Weather at Department of Public Safety Heliport

Public forecast

Using degrees Fahrenheit for public forecast. Weather courtesy of forecast.io.

Closest aviation weather report (METAR) to Department of Public Safety Heliport

Closest report is Stinson Municipal Airport, 1.9 nm (3.4 km) SW.

2023/03/30 22:53 (retrieved 59 minutes ago)

KSSF 302253Z 15014G20KT 10SM SCT031 BKN040 BKN055 26/19 A2983 RMK AO2 SLP093 T02610194

Closest aviation forecast (TAF) to Department of Public Safety Heliport

Closest forecast is Stinson Municipal Airport, 1.9 nm (3.4 km) SW.

2023/03/30 20:36 Ammendment (retrieved 3 hours ago)

TAF AMD KSSF 301932Z 3020/3118 16010G20KT P6SM BKN035 FM310300 14010G20KT P6SM BKN015 FM310600 15008KT P6SM OVC010 FM311600 20011KT P6SM BKN022